Time;durP1;ratioP1;P1;durP2;ratioP2;P2;SDS_P1;SDS_P2;PMS_P1;PMS_P2;Temp;Humidity;BMP_temperature;BMP_pressure;BME280_temperature;BME280_humidity;BME280_pressure;Samples;Min_cycle;Max_cycle;Signal;HPM_P1;HPM_P2
2022/03/29 00:00:13;;;;;;;21.95;15.07;;;;;;;6.36;86.20;101653.44;4702645;30;20030;-77
2022/03/29 00:02:39;;;;;;;18.63;14.65;;;;;;;6.67;86.31;101703.75;4686911;30;20447;-75
2022/03/29 00:05:05;;;;;;;21.95;14.63;;;;;;;6.65;86.68;101698.66;4702427;30;20057;-77
2022/03/29 00:07:31;;;;;;;21.27;14.65;;;;;;;6.55;86.37;101684.47;4702227;30;20068;-76
2022/03/29 00:09:56;;;;;;;22.40;16.38;;;;;;;6.42;87.21;101660.09;4701966;30;20376;-77
2022/03/29 00:12:22;;;;;;;26.58;16.40;;;;;;;6.35;87.53;101651.75;4686587;30;20053;-78
2022/03/29 00:14:47;;;;;;;24.75;17.33;;;;;;;6.49;88.05;101680.38;4702059;30;20036;-77
2022/03/29 00:17:12;;;;;;;24.17;16.40;;;;;;;6.48;87.52;101698.38;4702401;30;20034;-76
2022/03/29 00:19:38;;;;;;;23.88;15.18;;;;;;;6.43;87.92;101685.69;4702173;30;20034;-76
2022/03/29 00:22:03;;;;;;;22.85;15.95;;;;;;;6.13;87.52;101653.31;4702153;30;20479;-78
2022/03/29 00:24:28;;;;;;;22.42;15.00;;;;;;;6.29;87.58;101688.72;4701810;30;20496;-77
2022/03/29 00:26:54;;;;;;;21.33;15.52;;;;;;;6.25;87.62;101688.84;4701891;30;20053;-76
2022/03/29 00:29:19;;;;;;;22.08;14.93;;;;;;;6.17;88.12;101688.22;4701897;30;20040;-76
2022/03/29 00:31:44;;;;;;;26.42;18.10;;;;;;;6.21;89.63;101677.00;4701936;30;20096;-76
2022/03/29 00:34:10;;;;;;;23.30;16.67;;;;;;;6.19;89.47;101678.75;4701872;30;20491;-76
2022/03/29 00:36:35;;;;;;;22.45;16.00;;;;;;;6.19;89.92;101671.91;4701855;30;20484;-80
2022/03/29 00:39:00;;;;;;;26.55;18.60;;;;;;;6.20;90.42;101668.47;4701435;30;20037;-76
2022/03/29 00:41:26;;;;;;;30.00;16.60;;;;;;;6.10;89.10;101666.25;4701604;30;20876;-76
2022/03/29 00:43:51;;;;;;;23.70;16.70;;;;;;;6.11;89.98;101662.78;4701722;30;20026;-76
2022/03/29 00:46:17;;;;;;;23.75;17.10;;;;;;;6.11;89.77;101665.38;4701690;30;20033;-77
2022/03/29 00:48:43;;;;;;;23.23;16.73;;;;;;;6.02;89.16;101654.50;4701696;30;20033;-76
2022/03/29 00:51:10;;;;;;;24.90;17.65;;;;;;;6.01;90.34;101662.25;4701577;30;20072;-76
2022/03/29 00:53:36;;;;;;;24.77;16.98;;;;;;;5.94;89.99;101651.31;4701770;30;20515;-76
2022/03/29 00:56:02;;;;;;;23.33;17.13;;;;;;;5.91;90.32;101655.72;4701649;30;20105;-76
2022/03/29 00:58:28;;;;;;;26.23;19.25;;;;;;;5.66;91.27;101610.28;4701462;30;20040;-77
2022/03/29 01:00:58;;;;;;;21.50;16.52;;;;;;;5.69;90.36;101619.59;4701378;30;20080;-78
2022/03/29 01:03:24;;;;;;;24.80;16.50;;;;;;;5.73;90.31;101637.41;4701411;30;20045;-76
2022/03/29 01:05:49;;;;;;;25.73;17.67;;;;;;;5.79;91.43;101644.06;4701452;30;20033;-75
2022/03/29 01:08:14;;;;;;;24.45;16.70;;;;;;;5.72;90.44;101637.47;4701270;30;20037;-78
2022/03/29 01:10:45;;;;;;;22.90;16.58;;;;;;;5.46;91.22;101595.50;4701320;30;20033;-77
2022/03/29 01:13:12;;;;;;;27.13;19.27;;;;;;;5.67;92.21;101622.19;4701321;30;20029;-76
2022/03/29 01:15:40;;;;;;;27.55;18.58;;;;;;;5.59;92.81;101600.25;4685832;30;20395;-76
2022/03/29 01:18:06;;;;;;;28.98;19.80;;;;;;;5.79;93.06;101630.41;4701687;30;20051;-76
2022/03/29 01:20:37;;;;;;;28.10;19.92;;;;;;;5.63;93.33;101606.97;4701397;30;20049;-76
2022/03/29 01:23:03;;;;;;;26.05;19.38;;;;;;;5.63;93.31;101599.28;4701049;30;20036;-77
2022/03/29 01:25:38;;;;;;;26.52;19.10;;;;;;;5.72;93.27;101614.38;4701047;30;20104;-77
2022/03/29 01:28:05;;;;;;;27.55;19.90;;;;;;;5.62;93.21;101602.75;4701158;30;20084;-77
2022/03/29 01:30:31;;;;;;;27.95;19.92;;;;;;;5.61;93.18;101604.47;4700992;30;20087;-76
2022/03/29 01:33:00;;;;;;;27.20;21.25;;;;;;;5.73;94.01;101621.19;4701270;30;20371;-77
2022/03/29 01:35:26;;;;;;;28.75;20.27;;;;;;;5.74;94.03;101623.69;4701128;30;20060;-76
2022/03/29 01:37:53;;;;;;;32.30;21.02;;;;;;;5.74;94.27;101620.31;4700891;30;20030;-76
2022/03/29 01:40:22;;;;;;;28.48;20.75;;;;;;;5.48;94.77;101588.59;4700785;30;20041;-76
2022/03/29 01:42:53;;;;;;;31.42;21.70;;;;;;;5.56;94.68;101596.06;4700262;30;20030;-77
2022/03/29 01:45:21;;;;;;;30.98;21.55;;;;;;;5.59;94.63;101600.25;4700748;30;20032;-79
2022/03/29 01:47:46;;;;;;;30.10;22.33;;;;;;;5.65;94.43;101600.06;4700910;30;20038;-78
2022/03/29 01:50:12;;;;;;;28.20;21.58;;;;;;;5.47;94.42;101591.22;4700476;30;20037;-85
2022/03/29 01:52:40;;;;;;;32.90;21.67;;;;;;;5.65;94.40;101618.00;4700450;30;20034;-78
2022/03/29 01:55:06;;;;;;;30.73;21.90;;;;;;;5.59;94.46;101610.50;4700698;30;20435;-81
2022/03/29 01:57:31;;;;;;;31.23;21.80;;;;;;;5.60;94.47;101599.38;4700507;30;20407;-81
2022/03/29 02:02:40;;;;;;;35.42;22.83;;;;;;;5.56;94.68;101598.63;4700618;30;20095;-81
2022/03/29 02:05:06;;;;;;;29.60;21.67;;;;;;;5.52;94.59;101594.50;4700638;30;20442;-74
2022/03/29 02:07:32;;;;;;;31.83;22.50;;;;;;;5.41;94.88;101576.03;4700440;30;20096;-81
2022/03/29 02:09:57;;;;;;;32.97;22.27;;;;;;;5.48;95.61;101591.16;4700214;30;20057;-79
2022/03/29 02:12:22;;;;;;;30.88;22.63;;;;;;;5.45;95.55;101581.00;4700051;30;20118;-76
2022/03/29 02:14:48;;;;;;;32.03;22.42;;;;;;;5.50;96.00;101580.88;4700417;30;20045;-76
2022/03/29 02:17:13;;;;;;;31.98;22.45;;;;;;;4.81;95.74;101475.34;4700234;30;20084;-77
2022/03/29 02:19:38;;;;;;;35.92;23.20;;;;;;;5.17;96.30;101518.69;4700334;30;20038;-77
2022/03/29 02:22:04;;;;;;;33.47;23.95;;;;;;;5.48;96.40;101562.16;4700263;30;20120;-76
2022/03/29 02:24:30;;;;;;;34.65;23.13;;;;;;;4.98;96.32;101485.09;4700093;30;20046;-76
2022/03/29 02:26:55;;;;;;;34.05;23.88;;;;;;;5.52;96.59;101562.91;4699824;30;20088;-77
2022/03/29 02:29:20;;;;;;;35.85;24.65;;;;;;;5.51;96.40;101574.88;4699975;30;20038;-76
2022/03/29 02:31:46;;;;;;;37.63;24.27;;;;;;;5.35;96.59;101542.91;4700078;30;20042;-77
2022/03/29 02:34:11;;;;;;;34.58;23.67;;;;;;;5.27;97.17;101527.78;4700062;30;20068;-77
2022/03/29 02:36:36;;;;;;;37.78;24.02;;;;;;;5.40;96.97;101552.13;4700164;30;20029;-76
2022/03/29 02:39:02;;;;;;;35.47;24.25;;;;;;;5.45;97.22;101559.69;4699898;30;20033;-76
2022/03/29 02:41:27;;;;;;;37.25;25.38;;;;;;;5.48;97.55;101549.34;4699857;30;20038;-76
2022/03/29 02:43:52;;;;;;;37.83;25.58;;;;;;;5.46;97.24;101551.94;4699606;30;20072;-76
2022/03/29 02:46:19;;;;;;;36.10;25.17;;;;;;;5.37;97.22;101541.97;4700026;30;20041;-77
2022/03/29 02:48:44;;;;;;;36.75;24.85;;;;;;;5.27;97.41;101514.97;4699780;30;20037;-77
2022/03/29 02:51:10;;;;;;;38.28;25.58;;;;;;;5.34;97.65;101519.03;4699851;30;20060;-76
2022/03/29 02:53:35;;;;;;;35.88;24.50;;;;;;;5.49;97.34;101533.09;4699892;30;20491;-76
2022/03/29 02:56:00;;;;;;;35.80;25.55;;;;;;;5.34;97.33;101511.34;4699604;30;20103;-76
2022/03/29 02:58:26;;;;;;;38.25;25.80;;;;;;;5.46;97.27;101536.59;4699478;30;20037;-76
2022/03/29 03:00:52;;;;;;;35.75;24.85;;;;;;;5.47;97.33;101525.44;4699357;30;20030;-76
2022/03/29 03:03:17;;;;;;;38.13;26.55;;;;;;;5.46;97.16;101526.34;4699657;30;20091;-77
2022/03/29 03:05:43;;;;;;;41.88;27.25;;;;;;;5.29;97.15;101492.72;4699641;30;20112;-76
2022/03/29 03:08:08;;;;;;;36.97;26.15;;;;;;;5.29;97.25;101499.56;4699644;30;20040;-76
2022/03/29 03:10:33;;;;;;;39.97;26.92;;;;;;;5.22;97.65;101490.41;4699315;30;20510;-76
2022/03/29 03:12:59;;;;;;;38.22;26.23;;;;;;;5.36;97.84;101516.41;4699375;30;20029;-77
2022/03/29 03:15:25;;;;;;;40.42;26.70;;;;;;;5.17;97.74;101490.53;4699306;30;20119;-79
2022/03/29 03:17:59;;;;;;;38.72;26.80;;;;;;;5.30;98.15;101519.16;4684181;30;20029;-76
2022/03/29 03:20:26;;;;;;;39.20;27.60;;;;;;;5.29;98.05;101512.34;4699419;30;20026;-78
2022/03/29 03:22:52;;;;;;;39.17;26.35;;;;;;;5.26;98.11;101513.28;4699435;30;20037;-76
2022/03/29 03:25:17;;;;;;;38.53;27.23;;;;;;;5.00;97.99;101470.53;4683850;30;20078;-77
2022/03/29 03:27:43;;;;;;;43.15;29.08;;;;;;;5.15;97.96;101494.84;4698910;30;20053;-76
2022/03/29 03:30:11;;;;;;;41.70;28.92;;;;;;;5.20;98.70;101500.66;4683678;30;20046;-76
2022/03/29 03:32:37;;;;;;;37.00;27.48;;;;;;;5.15;98.63;101513.63;4699385;30;20503;-76
2022/03/29 03:35:03;;;;;;;41.30;29.27;;;;;;;4.87;98.57;101475.19;4699402;30;20038;-79
2022/03/29 03:37:30;;;;;;;42.85;28.58;;;;;;;5.09;98.84;101513.78;4699523;30;20081;-77
2022/03/29 03:39:55;;;;;;;43.20;29.52;;;;;;;5.06;98.80;101506.22;4699285;30;20057;-79
2022/03/29 03:42:20;;;;;;;42.55;29.00;;;;;;;4.68;98.98;101451.00;4699055;30;20069;-76
2022/03/29 03:44:46;;;;;;;41.15;29.33;;;;;;;5.05;99.12;101509.66;4699106;30;20456;-77
2022/03/29 03:47:11;;;;;;;41.10;28.58;;;;;;;4.90;99.19;101485.31;4699321;30;20034;-76
2022/03/29 03:49:38;;;;;;;42.17;29.55;;;;;;;5.04;99.07;101494.34;4699391;30;20456;-76
2022/03/29 03:52:04;;;;;;;41.75;28.50;;;;;;;5.01;99.19;101502.09;4683647;30;20084;-76
2022/03/29 03:54:30;;;;;;;41.75;28.45;;;;;;;5.00;99.32;101497.84;4699122;30;20041;-76
2022/03/29 03:56:55;;;;;;;39.67;27.73;;;;;;;4.98;99.18;101494.50;4699072;30;20539;-82
2022/03/29 03:59:21;;;;;;;42.90;29.48;;;;;;;4.58;99.23;101432.53;4699078;30;20088;-77
2022/03/29 04:01:47;;;;;;;41.30;29.75;;;;;;;4.92;99.19;101490.41;4698975;30;20479;-78
2022/03/29 04:04:12;;;;;;;43.53;28.38;;;;;;;4.68;99.67;101440.78;4699283;30;20455;-76
2022/03/29 04:06:38;;;;;;;43.50;30.33;;;;;;;4.69;99.55;101449.28;4699213;30;20034;-80
2022/03/29 04:09:03;;;;;;;45.83;30.42;;;;;;;4.85;99.46;101471.84;4698961;30;20029;-86
2022/03/29 04:11:29;;;;;;;42.92;30.45;;;;;;;4.98;99.25;101480.00;4699268;30;20044;-77
2022/03/29 04:13:54;;;;;;;42.75;29.48;;;;;;;5.02;99.33;101475.63;4699579;30;20045;-86
2022/03/29 04:16:20;;;;;;;42.30;29.55;;;;;;;5.01;98.82;101472.22;4686626;30;20042;-86
2022/03/29 04:18:45;;;;;;;42.30;30.13;;;;;;;5.03;99.03;101474.75;4702470;30;20033;-77
2022/03/29 04:21:11;;;;;;;43.03;29.58;;;;;;;4.88;98.80;101442.75;4702006;30;20566;-83
2022/03/29 04:23:37;;;;;;;44.22;31.67;;;;;;;4.81;98.98;101433.56;4702221;30;20072;-87
2022/03/29 04:26:03;;;;;;;46.22;30.67;;;;;;;4.79;99.08;101441.31;4702220;30;20390;-84
2022/03/29 04:28:28;;;;;;;46.30;31.42;;;;;;;4.52;98.96;101406.28;4701704;30;20148;-86
2022/03/29 04:30:55;;;;;;;47.20;31.70;;;;;;;4.66;99.93;101428.91;4701982;30;20121;-85
2022/03/29 04:33:21;;;;;;;47.92;32.33;;;;;;;4.87;99.87;101466.66;4701855;30;20487;-86
2022/03/29 04:35:47;;;;;;;50.35;33.28;;;;;;;4.57;100.00;101420.63;4701936;30;20044;-86
2022/03/29 04:38:12;;;;;;;49.97;31.40;;;;;;;4.85;100.00;101459.03;4686431;30;20112;-86
2022/03/29 04:40:38;;;;;;;47.85;33.08;;;;;;;4.92;100.00;101462.28;4701918;30;20030;-77
2022/03/29 04:43:03;;;;;;;49.58;33.22;;;;;;;4.67;100.00;101405.84;4701622;30;20440;-80
2022/03/29 04:45:28;;;;;;;45.88;30.65;;;;;;;4.96;100.00;101452.78;4701667;30;20471;-87
2022/03/29 04:47:54;;;;;;;50.83;33.60;;;;;;;4.97;100.00;101444.22;4701498;30;20044;-81
2022/03/29 04:50:19;;;;;;;52.50;33.13;;;;;;;4.86;100.00;101424.88;4701537;30;20037;-85
2022/03/29 04:52:46;;;;;;;53.35;32.97;;;;;;;4.89;100.00;101437.59;4701770;30;20034;-82
2022/03/29 04:55:13;;;;;;;50.75;32.60;;;;;;;4.90;100.00;101438.41;4685983;30;20038;-80
2022/03/29 04:57:41;;;;;;;52.15;32.92;;;;;;;4.86;100.00;101413.81;4701502;30;20356;-81
2022/03/29 05:00:16;;;;;;;56.13;33.80;;;;;;;5.02;100.00;101445.75;4701584;30;20055;-75
2022/03/29 05:02:43;;;;;;;51.28;34.15;;;;;;;4.81;100.00;101408.00;4701463;30;20033;-83
2022/03/29 05:05:10;;;;;;;54.00;32.58;;;;;;;4.85;100.00;101420.66;4701317;30;20029;-76
2022/03/29 05:07:36;;;;;;;52.13;32.85;;;;;;;5.00;100.00;101439.81;4701384;30;20091;-74
2022/03/29 05:10:02;;;;;;;53.85;33.33;;;;;;;5.03;100.00;101438.91;4701519;30;20057;-75
2022/03/29 05:12:28;;;;;;;52.25;32.15;;;;;;;5.02;100.00;101435.53;4701155;30;20026;-83
2022/03/29 05:14:53;;;;;;;51.08;32.78;;;;;;;5.05;100.00;101430.28;4701174;30;20033;-75
2022/03/29 05:17:19;;;;;;;51.80;33.00;;;;;;;5.05;100.00;101427.75;4701062;30;20501;-82
2022/03/29 05:19:47;;;;;;;53.70;33.80;;;;;;;5.09;100.00;101425.91;4701191;30;20420;-77
2022/03/29 05:22:15;;;;;;;52.78;33.47;;;;;;;5.08;100.00;101421.69;4701033;30;20033;-75
2022/03/29 05:24:40;;;;;;;59.03;35.28;;;;;;;5.05;100.00;101417.50;4701178;30;20472;-75
2022/03/29 05:27:06;;;;;;;55.65;34.08;;;;;;;5.06;100.00;101419.16;4690140;30;20049;-74
2022/03/29 05:29:31;;;;;;;53.13;33.03;;;;;;;5.06;100.00;101414.06;4718179;30;20087;-77
2022/03/29 05:31:58;;;;;;;53.33;33.65;;;;;;;5.08;100.00;101427.63;4718039;30;20095;-74
2022/03/29 05:34:24;;;;;;;55.53;34.85;;;;;;;5.09;100.00;101431.03;4718572;30;20041;-78
2022/03/29 05:36:50;;;;;;;55.47;35.13;;;;;;;5.13;100.00;101422.38;4718347;30;20391;-75
2022/03/29 05:39:15;;;;;;;52.70;32.42;;;;;;;5.04;100.00;101405.59;4718280;30;20033;-77
2022/03/29 05:41:41;;;;;;;55.95;33.42;;;;;;;5.14;100.00;101418.94;4718266;30;20033;-74
2022/03/29 05:44:06;;;;;;;52.60;32.67;;;;;;;5.13;100.00;101424.94;4717984;30;20513;-77
2022/03/29 05:49:15;;;;;;;52.45;32.88;;;;;;;5.07;100.00;101418.28;4718091;30;20133;-77
2022/03/29 05:51:41;;;;;;;51.25;30.85;;;;;;;4.83;100.00;101378.94;4718200;30;20053;-77
2022/03/29 05:54:06;;;;;;;56.42;33.75;;;;;;;5.11;100.00;101421.56;4718102;30;20379;-77
2022/03/29 05:56:32;;;;;;;57.05;33.72;;;;;;;5.13;100.00;101425.78;4717896;30;20087;-77
2022/03/29 05:58:57;;;;;;;55.25;32.90;;;;;;;4.91;100.00;101386.34;4717743;30;20025;-75
2022/03/29 06:01:22;;;;;;;54.05;32.75;;;;;;;5.11;100.00;101419.00;4701883;30;20055;-77
2022/03/29 06:06:13;;;;;;;55.17;32.60;;;;;;;5.04;100.00;101395.34;4672812;24;20074;-75
2022/03/29 06:08:39;;;;;;;57.20;33.63;;;;;;;5.22;100.00;101414.44;4666277;30;20281;-74
2022/03/29 06:11:04;;;;;;;53.78;32.72;;;;;;;5.10;100.00;101390.03;4665978;30;20480;-76
2022/03/29 06:13:30;;;;;;;54.88;33.08;;;;;;;5.30;100.00;101417.56;4665739;30;20042;-75
2022/03/29 06:15:55;;;;;;;56.22;34.15;;;;;;;5.24;100.00;101404.97;4665598;30;20066;-75
2022/03/29 06:18:22;;;;;;;50.78;31.80;;;;;;;5.08;100.00;101381.56;4665722;30;20041;-76
2022/03/29 06:20:48;;;;;;;54.13;34.00;;;;;;;5.28;100.00;101413.38;4666082;30;20031;-77
2022/03/29 06:23:14;;;;;;;54.80;34.97;;;;;;;5.38;100.00;101425.00;4665782;30;20503;-78
2022/03/29 06:25:41;;;;;;;52.92;32.65;;;;;;;5.35;100.00;101423.38;4666036;30;20039;-75
2022/03/29 06:28:07;;;;;;;51.80;32.08;;;;;;;5.39;100.00;101432.63;4665694;30;20061;-77
2022/03/29 06:30:32;;;;;;;56.78;32.05;;;;;;;5.36;100.00;101427.63;4665565;30;20038;-75
2022/03/29 06:32:58;;;;;;;51.42;31.55;;;;;;;5.27;100.00;101409.97;4665622;30;20065;-75
2022/03/29 06:35:26;;;;;;;56.70;31.77;;;;;;;5.10;100.00;101390.03;4665715;30;20476;-74
2022/03/29 06:37:56;;;;;;;51.50;33.08;;;;;;;5.18;100.00;101398.31;4664885;30;20132;-73
2022/03/29 06:40:23;;;;;;;53.85;32.97;;;;;;;5.37;100.00;101428.47;4666112;30;20109;-72
2022/03/29 06:42:49;;;;;;;56.22;32.17;;;;;;;5.22;100.00;101413.59;4665469;30;20036;-73
2022/03/29 06:45:14;;;;;;;52.88;31.55;;;;;;;5.34;100.00;101429.41;4665377;30;20030;-75
2022/03/29 06:47:41;;;;;;;51.13;31.77;;;;;;;5.28;100.00;101411.66;4665432;30;20034;-83
2022/03/29 06:50:08;;;;;;;54.78;32.00;;;;;;;5.38;100.00;101419.88;4665716;30;20038;-80
2022/03/29 06:52:45;;;;;;;53.72;33.17;;;;;;;5.35;100.00;101414.88;4665730;30;20034;-86
2022/03/29 06:55:13;;;;;;;53.85;32.47;;;;;;;5.29;100.00;101397.97;4665613;30;20034;-77
2022/03/29 06:57:41;;;;;;;60.38;33.08;;;;;;;5.50;100.00;101419.47;4665339;30;20464;-78
2022/03/29 07:00:15;;;;;;;52.92;31.65;;;;;;;5.51;100.00;101421.19;4665068;30;20037;-75
2022/03/29 07:02:40;;;;;;;57.33;32.20;;;;;;;5.51;100.00;101426.31;4665538;30;20129;-79
2022/03/29 07:05:07;;;;;;;54.53;31.77;;;;;;;5.42;100.00;101406.94;4665219;30;20565;-77
2022/03/29 07:07:32;;;;;;;53.83;33.08;;;;;;;5.51;100.00;101418.63;4665290;30;20042;-77
2022/03/29 07:12:48;;;;;;;53.47;31.25;;;;;;;5.32;100.00;101394.50;4665491;30;20555;-78
2022/03/29 07:15:14;;;;;;;55.97;31.95;;;;;;;5.30;100.00;101399.63;4665030;30;20561;-76
2022/03/29 07:17:42;;;;;;;57.05;31.70;;;;;;;5.37;100.00;101426.72;4665439;30;20043;-76
2022/03/29 07:20:08;;;;;;;66.88;31.80;;;;;;;5.35;100.00;101425.94;4665376;30;20030;-76
2022/03/29 07:22:34;;;;;;;54.28;31.23;;;;;;;5.39;100.00;101427.50;4665046;30;20404;-76
2022/03/29 07:24:59;;;;;;;50.95;32.17;;;;;;;5.41;100.00;101420.63;4665141;30;20042;-79
2022/03/29 07:27:24;;;;;;;54.35;32.05;;;;;;;5.44;100.00;101423.09;4665006;30;20042;-78
2022/03/29 07:29:50;;;;;;;60.78;33.80;;;;;;;5.34;100.00;101395.28;4665227;30;20022;-78
2022/03/29 07:32:15;;;;;;;56.35;33.88;;;;;;;5.34;100.00;101393.53;4649823;30;20462;-78
2022/03/29 07:34:41;;;;;;;57.08;32.63;;;;;;;5.56;100.00;101421.03;4665071;30;20038;-79
2022/03/29 07:37:06;;;;;;;56.85;33.35;;;;;;;5.63;100.00;101422.50;4665052;30;20042;-75
2022/03/29 07:39:32;;;;;;;53.85;32.08;;;;;;;5.69;100.00;101423.13;4664918;30;20447;-76
2022/03/29 07:41:58;;;;;;;58.97;33.05;;;;;;;5.67;100.00;101406.13;4664939;30;20144;-77
2022/03/29 07:44:25;;;;;;;56.25;31.83;;;;;;;5.63;100.00;101391.75;4664815;30;20169;-75
2022/03/29 07:46:56;;;;;;;56.88;32.88;;;;;;;5.84;100.00;101434.59;4664559;30;20045;-75
2022/03/29 07:49:22;;;;;;;54.22;32.33;;;;;;;5.90;100.00;101430.97;4666195;30;20038;-80
2022/03/29 07:51:52;;;;;;;61.60;33.20;;;;;;;5.89;100.00;101432.69;4668252;30;20094;-82
2022/03/29 07:54:18;;;;;;;59.65;33.35;;;;;;;5.88;100.00;101431.03;4668077;30;20031;-76
2022/03/29 07:56:47;;;;;;;58.38;32.35;;;;;;;5.64;100.00;101385.75;4668100;30;20041;-75
2022/03/29 07:59:13;;;;;;;51.53;31.10;;;;;;;5.84;100.00;101426.91;4668195;30;20054;-77
2022/03/29 08:01:38;;;;;;;55.17;32.38;;;;;;;5.65;100.00;101390.81;4667876;30;20042;-77
2022/03/29 08:04:04;;;;;;;59.75;33.95;;;;;;;5.56;100.00;101367.22;4666957;30;20484;-75
2022/03/29 08:06:30;;;;;;;51.80;30.88;;;;;;;5.94;100.00;101404.41;4667846;30;20063;-81
2022/03/29 08:09:02;;;;;;;53.67;31.83;;;;;;;5.82;100.00;101368.91;4668016;30;20130;-73
2022/03/29 08:11:29;;;;;;;55.22;31.83;;;;;;;5.91;99.36;101386.56;4667571;30;20101;-79
2022/03/29 08:13:56;;;;;;;47.97;29.00;;;;;;;6.12;98.95;101423.44;4667852;30;20035;-77
2022/03/29 08:16:21;;;;;;;47.65;29.58;;;;;;;6.17;99.47;101426.66;4667830;30;20396;-73
2022/03/29 08:18:47;;;;;;;49.03;29.40;;;;;;;6.22;99.42;101430.75;4667910;30;20042;-76
2022/03/29 08:23:57;;;;;;;46.75;28.42;;;;;;;6.31;99.10;101420.16;4668134;30;20408;-77
2022/03/29 08:26:22;;;;;;;45.30;28.92;;;;;;;6.35;98.20;101425.19;4667793;30;20038;-83
2022/03/29 08:28:48;;;;;;;43.15;29.02;;;;;;;6.11;97.75;101393.56;4667941;30;20434;-82
2022/03/29 08:31:13;;;;;;;41.50;26.92;;;;;;;6.16;98.23;101423.25;4667696;30;20066;-82
2022/03/29 08:33:38;;;;;;;42.97;28.20;;;;;;;5.80;98.36;101353.59;4667574;30;20046;-77
2022/03/29 08:36:04;;;;;;;41.33;27.48;;;;;;;6.08;98.54;101381.66;4667510;30;20046;-86
2022/03/29 08:38:29;;;;;;;44.53;27.23;;;;;;;5.96;98.20;101357.31;4652185;30;20038;-86
2022/03/29 08:40:58;;;;;;;42.97;29.02;;;;;;;6.39;98.41;101409.63;4667331;30;20035;-85
2022/03/29 08:43:27;;;;;;;42.10;28.02;;;;;;;6.19;97.56;101368.47;4667656;30;20038;-77
2022/03/29 08:45:53;;;;;;;40.08;27.30;;;;;;;6.26;97.32;101383.56;4667378;30;20053;-84
2022/03/29 08:48:23;;;;;;;40.92;27.95;;;;;;;6.14;97.72;101368.63;4667200;30;20035;-87
2022/03/29 08:50:51;;;;;;;41.25;27.33;;;;;;;6.31;97.32;101396.25;4667503;30;20079;-87
2022/03/29 08:53:17;;;;;;;41.22;27.10;;;;;;;6.44;97.18;101420.56;4667434;30;20039;-77
2022/03/29 08:56:06;;;;;;;42.15;27.77;;;;;;;6.42;97.52;101409.53;4667322;30;20035;-86
2022/03/29 08:58:31;;;;;;;39.22;26.50;;;;;;;6.44;96.81;101415.44;4667130;30;20039;-88
2022/03/29 09:01:02;;;;;;;41.83;26.77;;;;;;;5.65;97.03;101282.38;4667134;30;20031;-75
2022/03/29 09:03:27;;;;;;;40.67;28.02;;;;;;;5.91;97.24;101331.00;4666865;30;20092;-86
2022/03/29 09:06:13;;;;;;;39.95;27.73;;;;;;;6.36;97.18;101390.94;4666986;30;20054;-88
2022/03/29 09:08:43;;;;;;;40.08;26.90;;;;;;;6.52;96.83;101392.91;4666678;30;20077;-76
2022/03/29 09:11:09;;;;;;;41.63;27.02;;;;;;;6.54;95.86;101385.97;4667153;30;20045;-75
2022/03/29 09:13:34;;;;;;;38.63;26.60;;;;;;;6.56;96.16;101385.91;4667078;30;20035;-75
2022/03/29 09:16:01;;;;;;;39.20;27.10;;;;;;;6.72;95.89;101414.41;4667069;30;20097;-75
2022/03/29 09:18:31;;;;;;;39.22;26.92;;;;;;;6.59;95.88;101389.22;4666731;30;20038;-76
2022/03/29 09:21:16;;;;;;;39.95;28.95;;;;;;;6.78;95.84;101409.88;4667075;30;20487;-85
2022/03/29 09:23:43;;;;;;;39.72;27.05;;;;;;;6.47;95.67;101361.44;4666954;30;20058;-79
2022/03/29 09:26:26;;;;;;;40.97;26.58;;;;;;;6.83;95.99;101407.97;4666978;30;20038;-81
2022/03/29 09:28:51;;;;;;;39.65;27.27;;;;;;;6.88;95.48;101403.50;4666903;30;20047;-80
2022/03/29 09:31:29;;;;;;;41.25;27.67;;;;;;;6.85;94.20;101392.50;4666740;30;20085;-81
2022/03/29 09:34:19;;;;;;;40.35;26.98;;;;;;;6.94;94.59;101405.00;4666788;30;20362;-78
2022/03/29 09:36:50;;;;;;;39.63;27.73;;;;;;;6.89;94.68;101387.22;4666919;30;20388;-83
2022/03/29 09:39:34;;;;;;;35.97;25.23;;;;;;;6.99;94.36;101402.25;4651515;30;20121;-82
2022/03/29 09:42:01;;;;;;;37.13;25.48;;;;;;;6.78;94.52;101380.78;4666570;30;20167;-85
2022/03/29 09:44:44;;;;;;;38.50;26.17;;;;;;;7.03;94.78;101408.94;4664894;30;20045;-85
2022/03/29 09:47:13;;;;;;;37.22;25.75;;;;;;;6.99;94.45;101390.25;4666388;30;20495;-84
2022/03/29 09:50:09;;;;;;;35.55;25.17;;;;;;;7.24;94.06;101404.69;4666333;30;20060;-84
2022/03/29 09:52:40;;;;;;;37.70;26.13;;;;;;;6.94;93.58;101335.66;4665151;30;20130;-83
2022/03/29 09:55:21;;;;;;;36.20;25.02;;;;;;;7.06;93.78;101335.19;4666431;30;20504;-82
2022/03/29 09:57:53;;;;;;;35.33;24.85;;;;;;;7.48;92.60;101390.88;4666321;30;20030;-83
2022/03/29 10:00:24;;;;;;;35.63;25.58;;;;;;;7.45;92.38;101389.25;4666327;30;20034;-85
2022/03/29 10:02:51;;;;;;;36.88;24.60;;;;;;;7.40;92.30;101388.59;4666051;30;20038;-86
2022/03/29 10:05:25;;;;;;;38.17;25.58;;;;;;;7.40;92.41;101380.06;4674264;30;20054;-83
2022/03/29 10:10:47;;;;;;;37.33;25.92;;;;;;;7.12;92.62;101340.06;4683502;30;20511;-82
2022/03/29 10:16:02;;;;;;;33.65;24.85;;;;;;;6.88;92.61;101280.28;4682629;30;20117;-84
2022/03/29 10:18:28;;;;;;;34.10;24.50;;;;;;;6.55;92.36;101218.28;4662865;30;20193;-80
2022/03/29 10:20:56;;;;;;;33.63;24.10;;;;;;;6.70;91.80;101229.69;4663727;30;20516;-83
2022/03/29 10:24:00;;;;;;;33.00;23.38;;;;;;;6.52;92.30;101213.28;4677832;30;20054;-83
2022/03/29 10:27:06;;;;;;;36.47;24.17;;;;;;;7.46;92.48;101361.81;4666938;30;20035;-82
2022/03/29 10:29:46;;;;;;;35.20;25.73;;;;;;;6.65;91.97;101228.19;4666051;30;20200;-83
2022/03/29 10:32:31;;;;;;;35.83;23.98;;;;;;;6.56;92.04;101198.59;4663868;30;20026;-82
2022/03/29 10:35:12;;;;;;;35.78;24.80;;;;;;;7.26;92.43;101305.28;4663556;30;20046;-83
2022/03/29 10:41:54;;;;;;;35.70;25.10;;;;;;;6.73;91.49;101191.06;4663656;30;20050;-84
2022/03/29 10:48:35;;;;;;;34.65;23.85;;;;;;;7.01;90.81;101192.47;4663657;30;20049;-83
2022/03/29 10:51:23;;;;;;;34.63;25.10;;;;;;;8.38;nan;101352.72;4663614;30;20046;-84
2022/03/29 11:03:09;;;;;;;31.27;23.63;;;;;;;8.73;86.86;101341.63;4650441;30;20058;-84
2022/03/29 11:12:13;;;;;;;32.80;24.08;;;;;;;8.82;86.03;101325.72;5318367;25;20129;-83
2022/03/29 11:18:36;;;;;;;32.95;25.67;;;;;;;8.82;84.77;101323.16;4647462;30;20062;-85
2022/03/29 11:29:15;;;;;;;29.48;24.00;;;;;;;9.43;82.55;101298.69;5262756;25;20515;-84
2022/03/29 11:41:47;;;;;;;29.42;22.90;;;;;;;9.04;79.07;101126.34;4702874;30;20049;-81
2022/03/29 11:44:16;;;;;;;30.13;23.85;;;;;;;9.02;78.41;101123.00;4703005;30;20037;-81
2022/03/29 11:46:51;;;;;;;29.92;22.83;;;;;;;9.76;78.28;101211.03;4702928;30;20041;-81
2022/03/29 11:49:18;;;;;;;29.13;22.38;;;;;;;10.41;77.72;101268.56;4702868;30;20026;-83
2022/03/29 11:52:03;;;;;;;28.17;22.55;;;;;;;10.50;77.13;101252.56;4702557;30;20451;-79
2022/03/29 11:54:28;;;;;;;26.17;22.25;;;;;;;10.54;75.75;101266.16;4702803;30;20117;-81
2022/03/29 11:56:55;;;;;;;25.63;20.98;;;;;;;10.56;75.33;101254.00;4702831;30;20144;-77
2022/03/29 11:59:21;;;;;;;24.63;20.92;;;;;;;10.46;75.75;101229.59;4702565;30;20037;-78
2022/03/29 12:01:46;;;;;;;28.67;21.15;;;;;;;10.40;74.57;101230.78;4702561;30;20140;-81
2022/03/29 12:04:12;;;;;;;27.38;22.27;;;;;;;10.50;75.45;101244.84;4702392;30;20215;-77
2022/03/29 12:06:49;;;;;;;26.48;21.23;;;;;;;10.34;74.54;101252.63;4702176;30;20029;-77
2022/03/29 12:09:24;;;;;;;28.58;21.42;;;;;;;10.14;74.49;101242.53;4702471;30;20034;-76
2022/03/29 12:11:54;;;;;;;24.42;21.10;;;;;;;9.95;74.65;101234.94;4702370;30;20034;-80
2022/03/29 12:14:21;;;;;;;26.48;20.90;;;;;;;9.88;75.72;101245.66;4702412;30;20043;-81
2022/03/29 12:17:04;;;;;;;27.27;21.63;;;;;;;9.45;73.75;101199.78;4702526;30;20045;-77
2022/03/29 12:19:32;;;;;;;27.58;21.30;;;;;;;9.39;74.67;101214.72;4701918;30;20030;-77
2022/03/29 12:22:00;;;;;;;26.05;21.25;;;;;;;9.36;74.82;101226.03;4701946;30;20073;-77